Time;durP1;ratioP1;P1;durP2;ratioP2;P2;SDS_P1;SDS_P2;PMS_P1;PMS_P2;Temp;Humidity;BMP_temperature;BMP_pressure;BME280_temperature;BME280_humidity;BME280_pressure;Samples;Min_cycle;Max_cycle;Signal;HPM_P1;HPM_P2
2021/04/01 00:00:36;;;;;;;24.83;10.77;;;11.60;99.90;;;;;;5039199;28;20154;-54
2021/04/01 00:03:02;;;;;;;24.33;11.82;;;11.40;99.90;;;;;;5035649;28;20044;-52
2021/04/01 00:05:29;;;;;;;29.80;11.45;;;11.30;99.90;;;;;;5042167;28;20415;-52
2021/04/01 00:07:56;;;;;;;39.20;12.00;;;11.20;99.90;;;;;;5031527;28;20033;-54
2021/04/01 00:10:25;;;;;;;33.88;12.55;;;11.10;99.90;;;;;;5038600;28;20021;-51
2021/04/01 00:12:51;;;;;;;17.90;10.63;;;11.00;99.90;;;;;;5032200;28;20026;-54
2021/04/01 00:15:17;;;;;;;32.42;10.85;;;10.90;99.90;;;;;;5032624;28;20147;-55
2021/04/01 00:17:43;;;;;;;29.20;12.32;;;10.90;99.90;;;;;;5032036;28;20450;-52
2021/04/01 00:20:11;;;;;;;30.38;11.30;;;10.90;99.90;;;;;;5043445;28;20499;-55
2021/04/01 00:22:37;;;;;;;26.88;11.80;;;10.90;99.90;;;;;;5035181;28;20028;-53
2021/04/01 00:25:05;;;;;;;42.25;12.70;;;10.90;99.90;;;;;;5031101;28;20030;-52
2021/04/01 00:27:30;;;;;;;31.63;12.07;;;10.90;99.90;;;;;;5030787;28;20017;-54
2021/04/01 00:29:56;;;;;;;27.23;11.40;;;10.90;99.90;;;;;;5041146;28;20034;-53
2021/04/01 00:32:22;;;;;;;28.77;12.40;;;10.90;99.90;;;;;;5035357;28;20033;-53
2021/04/01 00:34:47;;;;;;;24.20;12.02;;;11.00;99.90;;;;;;5036948;28;20124;-52
2021/04/01 00:37:13;;;;;;;31.60;12.40;;;11.10;99.90;;;;;;5033488;28;20326;-51
2021/04/01 00:39:38;;;;;;;45.88;13.45;;;11.10;99.90;;;;;;5039279;28;20033;-53
2021/04/01 00:42:04;;;;;;;24.58;11.95;;;11.00;99.90;;;;;;5035299;28;20029;-52
2021/04/01 00:44:30;;;;;;;22.60;11.20;;;11.00;99.90;;;;;;5035147;28;20036;-52
2021/04/01 00:46:56;;;;;;;28.95;14.15;;;11.10;99.90;;;;;;5031075;28;20022;-53
2021/04/01 00:49:22;;;;;;;32.55;12.95;;;11.10;99.90;;;;;;5042163;28;20064;-53
2021/04/01 00:51:48;;;;;;;28.67;12.68;;;11.20;99.90;;;;;;5032614;28;20056;-53
2021/04/01 00:54:13;;;;;;;29.17;13.48;;;11.20;99.90;;;;;;5035970;28;20025;-52
2021/04/01 00:56:39;;;;;;;35.42;15.65;;;11.30;99.90;;;;;;5029622;28;20075;-53
2021/04/01 00:59:06;;;;;;;45.35;14.43;;;11.30;99.90;;;;;;5035249;28;20061;-51
2021/04/01 01:04:31;;;;;;;27.35;12.93;;;11.00;99.90;;;;;;5004654;28;20042;-52
2021/04/01 01:06:58;;;;;;;29.10;14.07;;;10.90;99.90;;;;;;5027023;28;20021;-55
2021/04/01 01:09:23;;;;;;;38.17;14.55;;;10.80;99.90;;;;;;5030600;28;20076;-51
2021/04/01 01:11:49;;;;;;;38.55;15.40;;;10.90;99.90;;;;;;5034375;28;20430;-55
2021/04/01 01:14:15;;;;;;;29.90;15.90;;;10.80;99.90;;;;;;5039304;28;20032;-52
2021/04/01 01:16:41;;;;;;;37.05;13.55;;;10.80;99.90;;;;;;5029767;28;20025;-51
2021/04/01 01:19:07;;;;;;;36.75;15.70;;;10.70;99.90;;;;;;5036647;28;20029;-51
2021/04/01 01:21:33;;;;;;;35.25;16.60;;;10.70;99.90;;;;;;5040425;28;20487;-52
2021/04/01 01:24:00;;;;;;;40.40;16.33;;;10.70;99.90;;;;;;5034106;28;20446;-52
2021/04/01 01:26:26;;;;;;;38.40;16.00;;;10.70;99.90;;;;;;5029693;28;20026;-53
2021/04/01 01:28:52;;;;;;;43.35;16.77;;;10.80;99.90;;;;;;5028836;28;20045;-51
2021/04/01 01:31:20;;;;;;;35.72;15.73;;;10.80;99.90;;;;;;5033736;28;20024;-51
2021/04/01 01:33:46;;;;;;;31.52;15.18;;;10.70;99.90;;;;;;5033943;28;20025;-52
2021/04/01 01:36:13;;;;;;;29.27;14.18;;;10.70;99.90;;;;;;5036229;28;20030;-51
2021/04/01 01:38:39;;;;;;;32.58;15.10;;;10.70;99.90;;;;;;5030713;28;20032;-55
2021/04/01 01:41:06;;;;;;;32.80;17.33;;;10.60;99.90;;;;;;5039360;28;20060;-51
2021/04/01 01:43:33;;;;;;;28.85;15.40;;;10.60;99.90;;;;;;5032326;28;20503;-55
2021/04/01 01:45:59;;;;;;;38.75;16.95;;;10.60;99.90;;;;;;5029552;28;20167;-53
2021/04/01 01:48:25;;;;;;;44.95;17.17;;;10.70;99.90;;;;;;5031089;28;20116;-51
2021/04/01 01:50:51;;;;;;;35.50;16.23;;;10.80;99.90;;;;;;5039221;28;20018;-52
2021/04/01 01:53:17;;;;;;;40.70;17.25;;;10.80;99.90;;;;;;5029726;28;20034;-51
2021/04/01 01:55:43;;;;;;;44.42;17.85;;;10.80;99.90;;;;;;5027695;28;20029;-51
2021/04/01 01:58:10;;;;;;;34.95;16.83;;;10.80;99.90;;;;;;5033733;28;20506;-54
2021/04/01 02:00:50;;;;;;;38.05;16.40;;;10.80;99.90;;;;;;5032380;28;20175;-51
2021/04/01 02:03:17;;;;;;;32.90;17.00;;;10.80;99.90;;;;;;5034973;28;20038;-50
2021/04/01 02:05:42;;;;;;;35.22;15.90;;;10.70;99.90;;;;;;5036232;28;20898;-51
2021/04/01 02:08:11;;;;;;;46.63;20.70;;;10.60;99.90;;;;;;5030993;28;20145;-52
2021/04/01 02:10:46;;;;;;;41.85;19.35;;;10.60;99.90;;;;;;5035465;28;20025;-49
2021/04/01 02:13:16;;;;;;;35.58;17.35;;;10.60;99.90;;;;;;5030092;28;20029;-51
2021/04/01 02:15:43;;;;;;;34.85;15.93;;;10.40;99.90;;;;;;5029659;28;20029;-49
2021/04/01 02:18:18;;;;;;;48.10;19.17;;;10.40;99.90;;;;;;5035091;28;20494;-50
2021/04/01 02:20:48;;;;;;;42.80;16.63;;;10.40;99.90;;;;;;5029884;28;20541;-52
2021/04/01 02:23:24;;;;;;;39.90;16.75;;;10.30;99.90;;;;;;5029445;28;20034;-53
2021/04/01 02:25:51;;;;;;;34.92;16.70;;;10.20;99.90;;;;;;5029017;28;20044;-50
2021/04/01 02:28:19;;;;;;;35.95;17.05;;;10.20;99.90;;;;;;5038516;28;20021;-54
2021/04/01 02:30:47;;;;;;;33.90;17.15;;;10.10;99.90;;;;;;5028757;28;20022;-52
2021/04/01 02:33:13;;;;;;;38.38;17.27;;;10.20;99.90;;;;;;5039344;28;20076;-51
2021/04/01 02:35:39;;;;;;;33.80;18.30;;;10.30;99.90;;;;;;5033225;28;20026;-54
2021/04/01 02:38:06;;;;;;;40.90;19.67;;;10.40;99.90;;;;;;5041807;28;20048;-54
2021/04/01 02:40:32;;;;;;;42.00;18.55;;;10.40;99.90;;;;;;5027638;28;20111;-52
2021/04/01 02:42:58;;;;;;;49.15;18.30;;;10.40;99.90;;;;;;5036149;28;20048;-51
2021/04/01 02:45:24;;;;;;;34.08;17.00;;;10.40;99.90;;;;;;5031633;28;20025;-54
2021/04/01 02:47:50;;;;;;;39.95;17.58;;;10.40;99.90;;;;;;5036667;28;20024;-51
2021/04/01 02:50:17;;;;;;;43.08;19.15;;;10.40;99.90;;;;;;5024714;28;20033;-50
2021/04/01 02:52:42;;;;;;;38.58;18.05;;;10.40;99.90;;;;;;5026468;28;20318;-51
2021/04/01 02:55:10;;;;;;;31.35;16.90;;;10.40;99.90;;;;;;5029145;28;20039;-54
2021/04/01 02:57:35;;;;;;;34.10;16.92;;;10.30;99.90;;;;;;5037670;28;20506;-50
2021/04/01 03:00:06;;;;;;;34.05;16.70;;;10.20;99.90;;;;;;5031097;28;20049;-53
2021/04/01 03:02:32;;;;;;;39.22;18.02;;;10.20;99.90;;;;;;5032767;28;20498;-52
2021/04/01 03:05:03;;;;;;;42.47;17.67;;;10.20;99.90;;;;;;5026534;28;20534;-54
2021/04/01 03:07:29;;;;;;;36.38;17.42;;;10.20;99.90;;;;;;5039268;28;20029;-51
2021/04/01 03:09:54;;;;;;;32.50;17.40;;;10.20;99.90;;;;;;5032684;28;20095;-50
2021/04/01 03:12:20;;;;;;;32.50;16.73;;;10.10;99.90;;;;;;5043985;28;20021;-50
2021/04/01 03:14:45;;;;;;;41.90;19.70;;;10.10;99.90;;;;;;5032234;28;20117;-50
2021/04/01 03:17:11;;;;;;;34.75;18.60;;;10.00;99.90;;;;;;5035075;28;20025;-50
2021/04/01 03:19:36;;;;;;;40.03;19.30;;;10.00;99.90;;;;;;5034302;28;20483;-50
2021/04/01 03:22:02;;;;;;;38.38;19.50;;;10.10;99.90;;;;;;5040898;28;20022;-50
2021/04/01 03:24:28;;;;;;;40.13;18.25;;;10.10;99.90;;;;;;5032572;28;20025;-50
2021/04/01 03:26:53;;;;;;;40.80;19.33;;;10.10;99.90;;;;;;5032515;28;20440;-50
2021/04/01 03:29:19;;;;;;;46.45;19.90;;;10.20;99.90;;;;;;5035017;28;20025;-49
2021/04/01 03:31:44;;;;;;;37.83;19.27;;;10.20;99.90;;;;;;5037829;28;20029;-52
2021/04/01 03:34:10;;;;;;;41.65;18.42;;;10.20;99.90;;;;;;5041557;28;20029;-50
2021/04/01 03:36:36;;;;;;;40.35;18.77;;;10.20;99.90;;;;;;5035358;28;20033;-50
2021/04/01 03:39:02;;;;;;;42.58;18.80;;;10.10;99.90;;;;;;5036022;28;20025;-50
2021/04/01 03:41:27;;;;;;;39.35;18.85;;;10.20;99.90;;;;;;5037418;28;20218;-50
2021/04/01 03:43:54;;;;;;;40.25;18.88;;;10.20;99.90;;;;;;5032394;28;20499;-52
2021/04/01 03:46:19;;;;;;;39.20;18.55;;;10.20;99.90;;;;;;5031752;28;20033;-52
2021/04/01 03:48:45;;;;;;;41.95;18.67;;;10.20;99.90;;;;;;5033351;28;20035;-49
2021/04/01 03:51:11;;;;;;;36.17;17.80;;;10.20;99.90;;;;;;5037325;28;20476;-52
2021/04/01 03:53:36;;;;;;;41.30;17.20;;;10.20;99.90;;;;;;5038845;28;20032;-51
2021/04/01 03:56:02;;;;;;;49.35;17.88;;;10.10;99.90;;;;;;5031894;28;20025;-53
2021/04/01 03:58:51;;;;;;;39.78;18.98;;;10.00;99.90;;;;;;5039614;28;20361;-50
2021/04/01 04:01:43;;;;;;;45.17;20.58;;;9.90;99.90;;;;;;5035710;28;20025;-50
2021/04/01 04:12:41;;;;;;;40.53;19.10;;;9.90;99.90;;;;;;5038934;28;20451;-51
2021/04/01 04:15:03;;;;;;;43.13;20.33;;;10.00;99.90;;;;;;5016758;28;20495;-52
2021/04/01 04:17:29;;;;;;;36.63;18.90;;;10.00;99.90;;;;;;5034184;28;20033;-49
2021/04/01 04:19:55;;;;;;;43.90;21.13;;;10.00;99.90;;;;;;5036308;28;20033;-49
2021/04/01 04:22:20;;;;;;;40.08;18.80;;;10.10;99.90;;;;;;5043273;28;20486;-51
2021/04/01 04:24:46;;;;;;;32.53;18.27;;;10.20;99.90;;;;;;5035065;28;20364;-51
2021/04/01 04:27:38;;;;;;;44.53;19.85;;;10.20;99.90;;;;;;5033063;28;20153;-50
2021/04/01 04:30:04;;;;;;;39.33;17.67;;;10.20;99.90;;;;;;5033814;28;20025;-50
2021/04/01 04:32:31;;;;;;;35.80;18.83;;;10.20;99.90;;;;;;5044458;28;20432;-50
2021/04/01 04:34:57;;;;;;;35.90;19.55;;;10.20;99.90;;;;;;5034023;28;20403;-52
2021/04/01 04:37:23;;;;;;;46.97;19.02;;;10.10;99.90;;;;;;5039107;28;20029;-49
2021/04/01 04:39:49;;;;;;;40.20;20.08;;;10.10;99.90;;;;;;5032529;28;20427;-50
2021/04/01 04:42:15;;;;;;;38.53;19.50;;;10.00;99.90;;;;;;5043387;28;20152;-51
2021/04/01 04:44:40;;;;;;;45.05;19.67;;;10.00;99.90;;;;;;5033030;28;20029;-49
2021/04/01 04:47:06;;;;;;;52.88;20.85;;;10.00;99.90;;;;;;5034878;28;20026;-50
2021/04/01 04:49:32;;;;;;;46.65;21.77;;;10.00;99.90;;;;;;5024635;28;20412;-53
2021/04/01 04:51:58;;;;;;;47.83;21.05;;;10.10;99.90;;;;;;5035781;28;20028;-51
2021/04/01 04:54:27;;;;;;;44.55;21.67;;;10.10;99.90;;;;;;5030680;28;20030;-49
2021/04/01 04:56:52;;;;;;;41.88;19.70;;;10.10;99.90;;;;;;5030173;28;20029;-54
2021/04/01 05:04:39;;;;;;;39.95;19.35;;;10.30;99.90;;;;;;5040258;28;19917;-50
2021/04/01 05:07:04;;;;;;;34.17;18.65;;;10.30;99.90;;;;;;5030675;28;20022;-52
2021/04/01 05:09:31;;;;;;;44.28;19.88;;;10.40;99.90;;;;;;5035920;28;20028;-52
2021/04/01 05:11:56;;;;;;;42.42;19.17;;;10.40;99.90;;;;;;5037692;28;20017;-50
2021/04/01 05:14:22;;;;;;;40.15;17.90;;;10.40;99.90;;;;;;5031884;28;20108;-50
2021/04/01 05:16:47;;;;;;;44.88;18.95;;;10.30;99.90;;;;;;5032243;28;20045;-52
2021/04/01 05:19:14;;;;;;;38.53;19.20;;;10.20;99.90;;;;;;5034397;28;20028;-50
2021/04/01 05:24:26;;;;;;;42.92;20.60;;;10.00;99.90;;;;;;5027745;28;20068;-51
2021/04/01 05:29:22;;;;;;;51.35;22.27;;;10.00;99.90;;;;;;5032058;28;20108;-50
2021/04/01 05:31:49;;;;;;;50.72;20.42;;;10.10;99.90;;;;;;5033863;28;20021;-50
2021/04/01 05:34:15;;;;;;;46.78;20.90;;;10.10;99.90;;;;;;5028435;28;20300;-56
2021/04/01 05:36:42;;;;;;;42.25;20.50;;;10.10;99.90;;;;;;5030050;28;20025;-51
2021/04/01 05:39:15;;;;;;;42.22;19.70;;;10.10;99.90;;;;;;5034803;28;20017;-49
2021/04/01 05:41:41;;;;;;;41.08;18.73;;;10.00;99.90;;;;;;5039229;28;20029;-49
2021/04/01 05:44:16;;;;;;;47.00;19.77;;;10.10;99.90;;;;;;5032399;28;20093;-50
2021/04/01 06:03:19;;;;;;;43.70;18.90;;;10.20;99.90;;;;;;5014661;28;20037;-51
2021/04/01 06:05:47;;;;;;;43.63;18.48;;;10.20;99.90;;;;;;5026487;28;20487;-50
2021/04/01 06:08:23;;;;;;;51.20;18.60;;;10.20;99.90;;;;;;5033426;28;20037;-52
2021/04/01 06:10:50;;;;;;;45.83;19.23;;;10.20;99.90;;;;;;5037876;28;20496;-50
2021/04/01 06:13:18;;;;;;;44.72;18.42;;;10.20;99.90;;;;;;5033339;28;20032;-50
2021/04/01 06:15:48;;;;;;;43.33;16.40;;;10.20;99.90;;;;;;5055047;22;20189;-57
2021/04/01 06:18:17;;;;;;;38.30;17.83;;;10.10;99.90;;;;;;5088478;28;20031;-59
2021/04/01 06:20:48;;;;;;;39.30;17.17;;;10.20;99.90;;;;;;5088844;28;20103;-59
2021/04/01 06:23:26;;;;;;;32.67;15.65;;;10.30;99.90;;;;;;5090148;28;20437;-60
2021/04/01 06:25:54;;;;;;;34.67;18.67;;;10.30;99.90;;;;;;5090437;28;20017;-59
2021/04/01 06:28:46;;;;;;;40.05;17.85;;;10.40;99.90;;;;;;5085541;28;20020;-60
2021/04/01 06:31:14;;;;;;;34.58;16.50;;;10.40;99.90;;;;;;5088021;28;20036;-59
2021/04/01 06:33:51;;;;;;;33.03;17.75;;;10.50;99.90;;;;;;5088478;28;20135;-60
2021/04/01 06:36:22;;;;;;;31.70;16.90;;;10.60;99.90;;;;;;5088851;28;20020;-59
2021/04/01 06:38:48;;;;;;;43.85;17.20;;;10.70;99.90;;;;;;5087993;28;20024;-59
2021/04/01 06:41:28;;;;;;;38.13;16.60;;;10.80;99.90;;;;;;5090108;28;20051;-57
2021/04/01 06:44:26;;;;;;;36.00;17.13;;;10.80;99.90;;;;;;5089780;28;20115;-59
2021/04/01 06:47:10;;;;;;;51.67;18.77;;;10.90;99.90;;;;;;5088423;28;20506;-59
2021/04/01 06:52:28;;;;;;;36.20;18.13;;;10.90;99.90;;;;;;5087923;28;20141;-58
2021/04/01 06:55:02;;;;;;;36.30;17.02;;;11.00;99.90;;;;;;5088531;28;20032;-60
2021/04/01 07:03:07;;;;;;;29.65;15.52;;;11.20;99.90;;;;;;5088299;28;20036;-60
2021/04/01 07:05:53;;;;;;;37.53;16.73;;;11.30;99.90;;;;;;5091373;28;20505;-59
2021/04/01 07:08:29;;;;;;;32.53;16.23;;;11.50;99.90;;;;;;5093070;28;20035;-60
2021/04/01 07:11:00;;;;;;;36.47;17.10;;;11.50;99.90;;;;;;5087933;28;20070;-61
2021/04/01 07:13:35;;;;;;;31.50;14.77;;;11.60;99.90;;;;;;5086258;28;20024;-61
2021/04/01 07:16:43;;;;;;;31.27;15.30;;;11.70;99.90;;;;;;5091994;28;20032;-59
2021/04/01 07:36:00;;;;;;;42.03;20.27;;;12.60;99.90;;;;;;5089768;28;20039;-59
2021/04/01 07:46:59;;;;;;;51.95;24.50;;;13.00;99.90;;;;;;5083657;28;20555;-59
2021/04/01 07:49:28;;;;;;;48.85;21.27;;;13.10;99.90;;;;;;5086324;28;20081;-59
2021/04/01 07:52:02;;;;;;;58.72;25.80;;;13.20;99.90;;;;;;5084289;28;20024;-60
2021/04/01 08:06:06;;;;;;;57.03;25.15;;;13.90;99.90;;;;;;5071429;28;20050;-59
2021/04/01 08:08:37;;;;;;;65.25;28.55;;;14.00;99.90;;;;;;5080692;28;20020;-60
2021/04/01 08:11:04;;;;;;;69.25;27.50;;;14.10;99.90;;;;;;5080128;28;20461;-60
2021/04/01 08:13:33;;;;;;;66.55;27.70;;;14.20;99.90;;;;;;5080895;28;20031;-60
2021/04/01 08:16:04;;;;;;;82.53;31.15;;;14.30;99.90;;;;;;5079088;28;20036;-59
2021/04/01 08:18:35;;;;;;;75.10;30.70;;;14.50;99.90;;;;;;5080010;28;20027;-60
2021/04/01 08:21:08;;;;;;;73.00;32.78;;;14.60;99.90;;;;;;5080217;28;20044;-60
2021/04/01 08:23:36;;;;;;;78.22;35.22;;;14.80;99.90;;;;;;5083061;28;20257;-59
2021/04/01 08:28:49;;;;;;;86.35;35.78;;;15.10;99.90;;;;;;5075256;28;20061;-59
2021/04/01 08:36:42;;;;;;;78.93;33.60;;;15.50;99.90;;;;;;5081256;28;20035;-59
2021/04/01 08:39:08;;;;;;;97.15;36.45;;;15.60;99.90;;;;;;5080256;28;20063;-60
2021/04/01 08:41:53;;;;;;;103.88;40.55;;;15.70;99.90;;;;;;5080095;28;20028;-60
2021/04/01 08:45:31;;;;;;;101.85;41.35;;;15.90;99.90;;;;;;5079743;28;20059;-59
2021/04/01 08:48:14;;;;;;;;;;;16.10;99.90;;;;;;5081020;28;20530;-60
2021/04/01 08:51:10;;;;;;;124.32;46.72;;;16.30;99.90;;;;;;5079691;28;19915;-60
2021/04/01 08:54:04;;;;;;;132.02;50.17;;;16.60;99.90;;;;;;5081578;28;20052;-59
2021/04/01 08:56:42;;;;;;;122.00;47.55;;;16.70;99.90;;;;;;5081368;28;20072;-59
2021/04/01 08:59:32;;;;;;;114.88;46.22;;;16.80;99.90;;;;;;5080668;28;20024;-60
2021/04/01 09:01:59;;;;;;;113.40;44.28;;;16.90;99.90;;;;;;5077318;28;20033;-60
2021/04/01 09:04:29;;;;;;;103.97;40.95;;;17.00;99.90;;;;;;5078290;28;20572;-60
2021/04/01 09:07:02;;;;;;;109.97;45.47;;;17.20;99.90;;;;;;5079307;28;20070;-60
2021/04/01 09:09:32;;;;;;;106.85;42.33;;;17.40;99.90;;;;;;5079167;28;20490;-60
2021/04/01 09:12:12;;;;;;;114.18;44.90;;;17.50;99.90;;;;;;5079831;28;20050;-60
2021/04/01 09:14:47;;;;;;;105.80;42.63;;;17.60;99.90;;;;;;5079038;28;20077;-59
2021/04/01 09:17:15;;;;;;;102.93;41.50;;;17.70;99.90;;;;;;5078101;28;20490;-60
2021/04/01 09:19:44;;;;;;;107.22;41.60;;;17.80;99.90;;;;;;5078580;28;20441;-60
2021/04/01 09:22:21;;;;;;;105.13;38.97;;;18.00;99.90;;;;;;5080194;28;20035;-59
2021/04/01 09:25:05;;;;;;;109.15;40.50;;;18.10;99.90;;;;;;5080049;28;20059;-59
2021/04/01 09:27:31;;;;;;;99.60;36.00;;;18.30;99.90;;;;;;5079882;28;20035;-59
2021/04/01 09:30:02;;;;;;;106.78;39.35;;;18.40;99.90;;;;;;5080275;28;20375;-60
2021/04/01 09:32:29;;;;;;;97.38;37.33;;;18.50;99.90;;;;;;5079887;28;20417;-60
2021/04/01 09:34:58;;;;;;;99.15;35.67;;;18.50;99.90;;;;;;5078775;28;20123;-59
2021/04/01 09:37:24;;;;;;;111.57;39.47;;;18.60;99.90;;;;;;5078739;28;20031;-60
2021/04/01 09:39:52;;;;;;;96.57;37.92;;;18.60;99.90;;;;;;5079181;28;20110;-60
2021/04/01 09:42:18;;;;;;;99.05;38.42;;;18.60;99.90;;;;;;5079742;28;20024;-60
2021/04/01 09:44:55;;;;;;;105.13;38.83;;;18.80;99.90;;;;;;5077352;28;20406;-59
2021/04/01 09:47:35;;;;;;;105.15;38.72;;;19.00;99.90;;;;;;5078305;28;20020;-59
2021/04/01 09:50:11;;;;;;;96.72;37.38;;;19.00;99.90;;;;;;5077879;28;20109;-59
2021/04/01 09:52:39;;;;;;;93.65;38.70;;;19.10;99.90;;;;;;5079045;28;20047;-58
2021/04/01 09:55:14;;;;;;;101.55;37.63;;;19.20;99.90;;;;;;5080024;28;20040;-59
2021/04/01 09:57:43;;;;;;;98.95;38.78;;;19.30;99.90;;;;;;5079663;28;20039;-59
2021/04/01 10:03:11;;;;;;;91.40;37.00;;;19.50;99.90;;;;;;5080750;28;20032;-60
2021/04/01 10:05:40;;;;;;;94.65;37.90;;;19.50;99.90;;;;;;5080742;28;20074;-60
2021/04/01 10:08:11;;;;;;;96.10;37.67;;;19.70;99.90;;;;;;5084665;28;20056;-58
2021/04/01 10:10:43;;;;;;;106.75;39.45;;;19.70;99.90;;;;;;5087565;28;20023;-59
2021/04/01 10:13:20;;;;;;;90.82;36.75;;;19.70;99.90;;;;;;5069704;28;20189;-60
2021/04/01 10:15:47;;;;;;;85.70;35.35;;;19.80;99.90;;;;;;5066885;28;20104;-59
2021/04/01 10:18:16;;;;;;;105.15;37.95;;;20.10;99.90;;;;;;5090263;28;20024;-60
2021/04/01 10:20:50;;;;;;;85.63;34.80;;;20.20;99.90;;;;;;5069510;28;20021;-60
2021/04/01 10:23:17;;;;;;;88.03;33.15;;;20.30;99.90;;;;;;5069581;28;20031;-60
2021/04/01 10:25:50;;;;;;;86.95;31.58;;;20.50;99.90;;;;;;5086426;28;20094;-63
2021/04/01 10:30:58;;;;;;;74.40;26.95;;;20.90;99.90;;;;;;5089366;28;20673;-59
2021/04/01 10:33:35;;;;;;;84.13;30.25;;;20.90;99.90;;;;;;5063660;28;20111;-59
2021/04/01 10:36:06;;;;;;;70.03;26.27;;;21.00;99.90;;;;;;5088396;28;20039;-59
2021/04/01 10:38:35;;;;;;;68.82;25.48;;;20.80;99.90;;;;;;5073872;28;20031;-59
2021/04/01 10:41:10;;;;;;;66.95;26.60;;;20.70;99.90;;;;;;5066029;28;20024;-59
2021/04/01 10:43:40;;;;;;;80.45;26.27;;;20.80;99.90;;;;;;5091116;28;20579;-59
2021/04/01 10:46:14;;;;;;;62.97;23.52;;;20.80;99.90;;;;;;5066114;28;20031;-60
2021/04/01 10:48:47;;;;;;;68.95;22.75;;;20.90;99.90;;;;;;5087609;28;20051;-60
2021/04/01 10:51:12;;;;;;;67.55;25.02;;;21.00;99.90;;;;;;5085665;28;20558;-59
2021/04/01 10:53:43;;;;;;;65.03;25.33;;;21.20;99.90;;;;;;5092381;28;20111;-59
2021/04/01 10:56:10;;;;;;;65.53;25.27;;;21.20;99.90;;;;;;5090096;28;20038;-59
2021/04/01 10:58:56;;;;;;;67.93;24.65;;;21.10;99.90;;;;;;5092438;28;20024;-60
2021/04/01 11:01:37;;;;;;;62.08;23.10;;;21.30;99.90;;;;;;5070365;28;20769;-59
2021/04/01 11:04:05;;;;;;;67.53;23.40;;;21.60;99.90;;;;;;5091523;28;20085;-58
2021/04/01 11:06:33;;;;;;;61.03;23.63;;;21.70;99.90;;;;;;5086405;28;20024;-57
2021/04/01 11:08:59;;;;;;;66.68;25.48;;;21.60;99.90;;;;;;5092312;28;20448;-59
2021/04/01 11:14:08;;;;;;;60.45;21.45;;;21.90;99.90;;;;;;5091290;28;20111;-57
2021/04/01 11:16:36;;;;;;;68.30;23.85;;;21.90;99.90;;;;;;5090231;28;20028;-58
2021/04/01 11:19:02;;;;;;;62.47;23.85;;;21.90;99.90;;;;;;5088497;28;20119;-59
2021/04/01 11:21:32;;;;;;;60.88;22.85;;;21.90;99.90;;;;;;5091018;28;20111;-59
2021/04/01 11:23:58;;;;;;;67.07;21.90;;;22.00;99.90;;;;;;5093295;28;20031;-59
2021/04/01 11:26:28;;;;;;;57.88;22.48;;;21.90;99.90;;;;;;5091406;28;20027;-58
2021/04/01 11:28:54;;;;;;;66.45;21.00;;;22.00;99.90;;;;;;5091882;28;20031;-58
2021/04/01 11:31:26;;;;;;;67.28;24.45;;;21.90;99.90;;;;;;5090302;28;20024;-59
2021/04/01 11:33:53;;;;;;;59.10;21.52;;;21.90;99.90;;;;;;5090710;28;20020;-58
2021/04/01 11:36:21;;;;;;;66.90;23.63;;;22.20;99.90;;;;;;5089753;28;20050;-58
2021/04/01 11:38:50;;;;;;;62.42;21.52;;;22.30;99.90;;;;;;5092172;28;20019;-58
2021/04/01 11:41:18;;;;;;;65.68;23.23;;;22.30;99.90;;;;;;5090555;28;20419;-58
2021/04/01 11:43:49;;;;;;;68.47;24.33;;;22.20;99.90;;;;;;5083302;28;20054;-59
2021/04/01 11:46:27;;;;;;;78.22;25.42;;;22.00;99.90;;;;;;5082151;28;20032;-57
2021/04/01 11:48:55;;;;;;;69.53;24.02;;;22.10;99.90;;;;;;5089517;28;20111;-58
2021/04/01 11:51:20;;;;;;;58.42;22.45;;;22.20;99.90;;;;;;5089527;28;20028;-59
2021/04/01 11:53:47;;;;;;;65.22;23.17;;;22.20;99.90;;;;;;5076718;28;20030;-56
2021/04/01 11:56:13;;;;;;;57.67;21.70;;;22.30;99.90;;;;;;5091323;28;20059;-59
2021/04/01 11:58:39;;;;;;;65.20;22.45;;;22.50;99.90;;;;;;5087937;28;20054;-58
2021/04/01 12:01:10;;;;;;;68.53;24.63;;;22.70;99.90;;;;;;5065413;28;20040;-57
2021/04/01 12:06:05;;;;;;;67.63;25.23;;;22.30;99.90;;;;;;5084788;28;20033;-56
2021/04/01 12:08:31;;;;;;;60.00;22.38;;;22.30;99.90;;;;;;5085675;28;20110;-57
2021/04/01 12:10:57;;;;;;;70.82;24.00;;;22.60;99.90;;;;;;5079587;28;20117;-59
2021/04/01 12:13:24;;;;;;;62.33;22.02;;;22.50;99.90;;;;;;5085774;28;20024;-58
2021/04/01 12:15:51;;;;;;;64.20;24.90;;;22.60;99.90;;;;;;5070744;28;20882;-60
2021/04/01 12:18:17;;;;;;;69.97;24.77;;;22.40;99.90;;;;;;5087097;28;20062;-57
2021/04/01 12:20:43;;;;;;;61.63;24.20;;;22.40;99.90;;;;;;5087801;28;20023;-57
2021/04/01 12:23:20;;;;;;;66.38;26.38;;;22.50;99.90;;;;;;5088187;28;20027;-57
2021/04/01 12:25:46;;;;;;;81.38;28.52;;;22.60;99.90;;;;;;5084910;28;20085;-57
2021/04/01 12:28:22;;;;;;;68.45;26.33;;;22.60;99.90;;;;;;5085543;28;20506;-56
2021/04/01 12:30:50;;;;;;;73.55;29.00;;;22.80;99.90;;;;;;5081615;28;20035;-57
2021/04/01 12:33:19;;;;;;;74.45;28.88;;;22.60;99.90;;;;;;5085044;28;20024;-59
2021/04/01 12:35:51;;;;;;;83.35;32.40;;;22.60;99.90;;;;;;5084415;28;20028;-59
2021/04/01 12:38:37;;;;;;;80.40;29.58;;;22.80;99.90;;;;;;5085484;28;20512;-59
2021/04/01 12:41:05;;;;;;;81.63;31.50;;;22.80;99.90;;;;;;5080623;28;20359;-59
2021/04/01 12:43:39;;;;;;;79.15;29.40;;;22.90;99.90;;;;;;5083751;28;20060;-58
2021/04/01 12:46:06;;;;;;;83.53;33.70;;;23.00;99.90;;;;;;5082183;28;20107;-58
2021/04/01 12:48:43;;;;;;;91.43;33.70;;;23.20;99.90;;;;;;5104140;22;20152;-54
2021/04/01 12:51:11;;;;;;;89.80;34.38;;;23.00;99.90;;;;;;5084251;28;20166;-51
2021/04/01 12:53:37;;;;;;;82.75;32.58;;;22.90;99.90;;;;;;5081409;28;20024;-51
2021/04/01 12:56:17;;;;;;;90.50;36.17;;;23.00;99.90;;;;;;5052416;28;20081;-55
2021/04/01 12:58:48;;;;;;;98.43;36.20;;;22.90;99.90;;;;;;5062713;28;20498;-54
2021/04/01 13:04:07;;;;;;;86.80;36.45;;;23.00;99.90;;;;;;5069012;28;20036;-51
2021/04/01 13:11:26;;;;;;;103.55;41.10;;;22.70;99.90;;;;;;5066360;28;20035;-53
2021/04/01 13:13:54;;;;;;;102.30;40.13;;;22.90;99.90;;;;;;5068534;28;20456;-54
2021/04/01 13:16:20;;;;;;;106.95;41.38;;;22.80;99.90;;;;;;5064462;28;20404;-53
2021/04/01 13:18:46;;;;;;;109.30;41.05;;;22.90;99.90;;;;;;5068370;28;20478;-55
2021/04/01 13:24:03;;;;;;;113.05;38.88;;;23.30;99.90;;;;;;5069726;28;20460;-51
2021/04/01 13:26:31;;;;;;;99.75;36.03;;;23.30;99.80;;;;;;5067383;28;20041;-51
2021/04/01 13:28:58;;;;;;;93.93;36.03;;;23.30;99.10;;;;;;5071681;28;20103;-52
2021/04/01 13:31:36;;;;;;;119.65;40.17;;;22.80;99.00;;;;;;5066703;28;20016;-53
2021/04/01 13:34:08;;;;;;;102.47;36.17;;;22.80;98.50;;;;;;5064824;28;20442;-51
2021/04/01 13:36:41;;;;;;;105.32;37.45;;;22.50;98.50;;;;;;5065318;28;20098;-50
2021/04/01 13:39:08;;;;;;;96.10;36.23;;;22.40;98.70;;;;;;5049991;28;20032;-54
2021/04/01 13:41:51;;;;;;;102.05;36.10;;;22.40;98.60;;;;;;5067165;28;20389;-51
2021/04/01 13:44:19;;;;;;;93.60;35.38;;;22.40;98.90;;;;;;5066453;28;20111;-52
2021/04/01 13:46:46;;;;;;;91.57;34.63;;;22.60;98.50;;;;;;5065086;28;20032;-50
2021/04/01 13:49:18;;;;;;;86.03;34.30;;;22.50;98.20;;;;;;5066927;28;20024;-53
2021/04/01 13:51:44;;;;;;;89.35;35.80;;;22.60;98.30;;;;;;5067419;28;20032;-52
2021/04/01 13:54:37;;;;;;;90.55;36.58;;;22.60;98.90;;;;;;5066971;28;20106;-54
2021/04/01 13:57:21;;;;;;;86.32;38.38;;;22.70;98.80;;;;;;5067388;28;20486;-52
2021/04/01 14:00:15;;;;;;;89.07;39.67;;;22.70;98.60;;;;;;5067525;28;20035;-53
2021/04/01 14:11:09;;;;;;;119.38;54.75;;;21.70;99.90;;;;;;5068244;28;20027;-51
2021/04/01 14:13:34;;;;;;;121.80;56.40;;;21.60;99.90;;;;;;5066413;28;20039;-51
2021/04/01 14:16:00;;;;;;;121.63;54.83;;;21.60;99.90;;;;;;5066455;28;20110;-50
2021/04/01 14:18:27;;;;;;;119.53;53.90;;;21.60;99.90;;;;;;5066519;28;20024;-51
2021/04/01 14:20:53;;;;;;;118.97;54.05;;;21.40;99.90;;;;;;5065717;28;20028;-54
2021/04/01 14:23:23;;;;;;;113.22;53.72;;;21.40;99.90;;;;;;5066521;28;20483;-51
2021/04/01 14:25:49;;;;;;;116.93;53.30;;;21.40;99.90;;;;;;5064075;28;20548;-52
2021/04/01 14:28:15;;;;;;;116.32;54.28;;;21.40;99.90;;;;;;5065872;28;20852;-54
2021/04/01 14:30:41;;;;;;;111.22;55.67;;;21.40;99.90;;;;;;5065816;28;20028;-53
2021/04/01 14:33:08;;;;;;;123.60;58.78;;;21.20;99.90;;;;;;5065038;28;20021;-54
2021/04/01 14:35:34;;;;;;;129.25;59.00;;;21.20;99.90;;;;;;5068172;28;20033;-53
2021/04/01 14:38:03;;;;;;;122.70;59.67;;;21.20;99.90;;;;;;5065969;28;20032;-52
2021/04/01 14:40:35;;;;;;;123.40;59.65;;;21.00;99.90;;;;;;5064785;28;20032;-53